Terminal Aerodrome Forecast
Issued by NWS Portland, ME

Home | Current Version | Previous Version | Text Only | Print | Product List | Glossary On
Versions: 1 2 3 4 5 6 7 8 9 10 11 12 13 14 15 16 17 18 19 20 21
069
FTUS41 KGYX 051906 AAA
TAFCON
TAF AMD
KCON 051906Z 0519/0618 03008G17KT P6SM OVC017
     FM060000 36010G19KT 6SM -SHRA BR OVC015
     FM060900 36006KT 5SM -DZ BR OVC015
     FM061400 03007KT P6SM OVC035=

USA.gov is the U.S. government's official web portal to all federal, state and local government web resources and services.